Current Weather

Aeroparque Jorge Newbery

Aeroparque Jorge Newbery, Argentina (SABE)

Report from: Monday, August 15, 2022 10:00 PM -03
Current time: Monday, August 15, 2022 10:27 PM -03

Nearby weather
Weather history
Weather forecast

Temperature11.0°C (51.8°F)
Dew point-4.0°C (24.8°F)
Winds 4 kts (2.1 m/s, 4.6 mph) Vrb
Winds variableWinds variable from South (190°) to North-Northwest (330°)
Clouds Sky clear
Altimeter29.83 in.Hg (1010 mB)
Relative humidity35 %
Density altitude-293 ft. (-89 m)
Remarks Ceiling and visibility OK
Corrected report
No significant changes expected in the next two hours
Flight conditions Visual Meteorological Conditions
Raw dataCOR SABE 160100Z 26004KT 190V330 CAVOK 11/M04 Q1010 NOSIG RMK PP000
An error has occurred. This application may no longer respond until reloaded. Reload 🗙